sensor_id;sensor_type;location;lat;lon;timestamp;P1;durP1;ratioP1;P2;durP2;ratioP2
9254;SDS011;4663;49.120;9.730;2023-06-22T00:01:08;52.00;;;49.08;;
9254;SDS011;4663;49.120;9.730;2023-06-22T00:03:34;50.15;;;47.55;;
9254;SDS011;4663;49.120;9.730;2023-06-22T00:05:59;59.35;;;56.25;;
9254;SDS011;4663;49.120;9.730;2023-06-22T00:08:24;71.97;;;68.13;;
9254;SDS011;4663;49.120;9.730;2023-06-22T00:10:50;97.38;;;92.55;;
9254;SDS011;4663;49.120;9.730;2023-06-22T00:13:16;126.40;;;120.30;;
9254;SDS011;4663;49.120;9.730;2023-06-22T00:15:42;125.65;;;119.65;;
9254;SDS011;4663;49.120;9.730;2023-06-22T00:18:09;141.63;;;134.88;;
9254;SDS011;4663;49.120;9.730;2023-06-22T00:20:35;142.93;;;136.18;;
9254;SDS011;4663;49.120;9.730;2023-06-22T00:23:02;142.98;;;136.02;;
9254;SDS011;4663;49.120;9.730;2023-06-22T00:25:37;143.77;;;136.88;;
9254;SDS011;4663;49.120;9.730;2023-06-22T00:28:03;122.68;;;116.78;;
9254;SDS011;4663;49.120;9.730;2023-06-22T00:30:30;110.88;;;104.53;;
9254;SDS011;4663;49.120;9.730;2023-06-22T00:32:56;111.95;;;106.63;;
9254;SDS011;4663;49.120;9.730;2023-06-22T00:35:22;121.20;;;115.38;;
9254;SDS011;4663;49.120;9.730;2023-06-22T00:37:47;105.28;;;100.07;;
9254;SDS011;4663;49.120;9.730;2023-06-22T00:40:13;103.93;;;98.35;;
9254;SDS011;4663;49.120;9.730;2023-06-22T00:42:39;103.32;;;98.43;;
9254;SDS011;4663;49.120;9.730;2023-06-22T00:45:06;101.70;;;96.78;;
9254;SDS011;4663;49.120;9.730;2023-06-22T00:47:31;92.90;;;87.95;;
9254;SDS011;4663;49.120;9.730;2023-06-22T00:49:59;87.40;;;83.07;;
9254;SDS011;4663;49.120;9.730;2023-06-22T00:52:25;83.97;;;79.68;;
9254;SDS011;4663;49.120;9.730;2023-06-22T00:54:54;75.93;;;72.00;;
9254;SDS011;4663;49.120;9.730;2023-06-22T00:57:22;78.22;;;74.22;;
9254;SDS011;4663;49.120;9.730;2023-06-22T00:59:52;75.20;;;70.72;;
9254;SDS011;4663;49.120;9.730;2023-06-22T01:02:19;76.57;;;72.78;;
9254;SDS011;4663;49.120;9.730;2023-06-22T01:04:44;81.82;;;77.72;;
9254;SDS011;4663;49.120;9.730;2023-06-22T01:12:40;138.18;;;131.52;;
9254;SDS011;4663;49.120;9.730;2023-06-22T01:15:18;137.70;;;131.00;;
9254;SDS011;4663;49.120;9.730;2023-06-22T01:17:50;127.15;;;120.97;;
9254;SDS011;4663;49.120;9.730;2023-06-22T01:20:18;118.38;;;112.65;;
9254;SDS011;4663;49.120;9.730;2023-06-22T01:25:53;88.85;;;84.47;;
9254;SDS011;4663;49.120;9.730;2023-06-22T01:31:06;83.75;;;79.60;;
9254;SDS011;4663;49.120;9.730;2023-06-22T01:33:35;77.45;;;73.65;;
9254;SDS011;4663;49.120;9.730;2023-06-22T01:36:02;90.55;;;85.82;;
9254;SDS011;4663;49.120;9.730;2023-06-22T01:38:29;124.70;;;118.70;;
9254;SDS011;4663;49.120;9.730;2023-06-22T01:40:57;123.18;;;117.07;;
9254;SDS011;4663;49.120;9.730;2023-06-22T01:43:23;135.98;;;129.13;;
9254;SDS011;4663;49.120;9.730;2023-06-22T01:45:50;128.65;;;122.32;;
9254;SDS011;4663;49.120;9.730;2023-06-22T01:48:16;124.70;;;118.57;;
9254;SDS011;4663;49.120;9.730;2023-06-22T01:50:43;104.72;;;99.47;;
9254;SDS011;4663;49.120;9.730;2023-06-22T01:53:08;104.78;;;99.72;;
9254;SDS011;4663;49.120;9.730;2023-06-22T01:55:33;102.32;;;97.43;;
9254;SDS011;4663;49.120;9.730;2023-06-22T01:57:59;97.47;;;92.68;;
9254;SDS011;4663;49.120;9.730;2023-06-22T02:00:25;106.13;;;100.78;;
9254;SDS011;4663;49.120;9.730;2023-06-22T02:03:00;133.00;;;126.28;;
9254;SDS011;4663;49.120;9.730;2023-06-22T02:05:34;148.88;;;141.57;;
9254;SDS011;4663;49.120;9.730;2023-06-22T02:10:37;128.77;;;122.43;;
9254;SDS011;4663;49.120;9.730;2023-06-22T02:13:06;124.35;;;118.38;;
9254;SDS011;4663;49.120;9.730;2023-06-22T02:15:34;135.57;;;128.68;;
9254;SDS011;4663;49.120;9.730;2023-06-22T02:18:00;132.02;;;125.45;;
9254;SDS011;4663;49.120;9.730;2023-06-22T02:20:26;128.32;;;122.03;;
9254;SDS011;4663;49.120;9.730;2023-06-22T02:22:51;132.45;;;125.72;;
9254;SDS011;4663;49.120;9.730;2023-06-22T02:25:16;138.13;;;131.27;;
9254;SDS011;4663;49.120;9.730;2023-06-22T02:27:42;136.40;;;129.70;;
9254;SDS011;4663;49.120;9.730;2023-06-22T02:30:08;135.73;;;129.15;;
9254;SDS011;4663;49.120;9.730;2023-06-22T02:32:34;121.00;;;115.10;;
9254;SDS011;4663;49.120;9.730;2023-06-22T02:35:00;124.07;;;117.90;;
9254;SDS011;4663;49.120;9.730;2023-06-22T02:37:29;108.70;;;103.35;;
9254;SDS011;4663;49.120;9.730;2023-06-22T02:39:54;94.88;;;90.03;;
9254;SDS011;4663;49.120;9.730;2023-06-22T02:42:20;89.07;;;84.60;;
9254;SDS011;4663;49.120;9.730;2023-06-22T02:44:46;87.78;;;83.32;;
9254;SDS011;4663;49.120;9.730;2023-06-22T02:47:12;86.60;;;82.13;;
9254;SDS011;4663;49.120;9.730;2023-06-22T02:49:37;98.07;;;93.25;;
9254;SDS011;4663;49.120;9.730;2023-06-22T02:52:03;100.57;;;95.68;;
9254;SDS011;4663;49.120;9.730;2023-06-22T02:54:28;99.28;;;94.32;;
9254;SDS011;4663;49.120;9.730;2023-06-22T02:56:54;99.47;;;94.47;;
9254;SDS011;4663;49.120;9.730;2023-06-22T02:59:19;94.18;;;89.43;;
9254;SDS011;4663;49.120;9.730;2023-06-22T03:01:48;84.63;;;80.35;;
9254;SDS011;4663;49.120;9.730;2023-06-22T03:04:15;84.72;;;80.38;;
9254;SDS011;4663;49.120;9.730;2023-06-22T03:06:40;89.22;;;84.57;;
9254;SDS011;4663;49.120;9.730;2023-06-22T03:09:06;96.50;;;91.57;;
9254;SDS011;4663;49.120;9.730;2023-06-22T03:11:32;96.38;;;91.55;;
9254;SDS011;4663;49.120;9.730;2023-06-22T03:13:59;88.40;;;83.95;;
9254;SDS011;4663;49.120;9.730;2023-06-22T03:16:26;80.10;;;75.68;;
9254;SDS011;4663;49.120;9.730;2023-06-22T03:18:51;83.70;;;79.20;;
9254;SDS011;4663;49.120;9.730;2023-06-22T03:21:18;82.47;;;78.30;;
9254;SDS011;4663;49.120;9.730;2023-06-22T03:23:44;92.25;;;87.60;;
9254;SDS011;4663;49.120;9.730;2023-06-22T03:26:10;90.88;;;86.18;;
9254;SDS011;4663;49.120;9.730;2023-06-22T03:28:35;97.22;;;92.15;;
9254;SDS011;4663;49.120;9.730;2023-06-22T03:31:02;123.72;;;117.22;;
9254;SDS011;4663;49.120;9.730;2023-06-22T03:33:29;139.57;;;132.65;;
9254;SDS011;4663;49.120;9.730;2023-06-22T03:35:55;137.25;;;130.25;;
9254;SDS011;4663;49.120;9.730;2023-06-22T03:38:20;133.82;;;126.97;;
9254;SDS011;4663;49.120;9.730;2023-06-22T03:40:45;125.45;;;119.28;;
9254;SDS011;4663;49.120;9.730;2023-06-22T03:43:11;112.30;;;106.65;;
9254;SDS011;4663;49.120;9.730;2023-06-22T03:45:36;110.35;;;104.95;;
9254;SDS011;4663;49.120;9.730;2023-06-22T03:48:02;120.72;;;114.75;;
9254;SDS011;4663;49.120;9.730;2023-06-22T03:50:27;98.88;;;93.90;;
9254;SDS011;4663;49.120;9.730;2023-06-22T03:52:53;87.68;;;83.25;;
9254;SDS011;4663;49.120;9.730;2023-06-22T03:55:22;80.63;;;76.32;;
9254;SDS011;4663;49.120;9.730;2023-06-22T03:57:47;90.20;;;85.53;;
9254;SDS011;4663;49.120;9.730;2023-06-22T04:00:13;94.35;;;88.80;;
9254;SDS011;4663;49.120;9.730;2023-06-22T04:02:40;87.47;;;82.57;;
9254;SDS011;4663;49.120;9.730;2023-06-22T04:05:08;69.03;;;65.07;;
9254;SDS011;4663;49.120;9.730;2023-06-22T04:07:34;58.83;;;55.38;;
9254;SDS011;4663;49.120;9.730;2023-06-22T04:10:02;64.45;;;60.35;;
9254;SDS011;4663;49.120;9.730;2023-06-22T04:12:28;65.32;;;61.72;;
9254;SDS011;4663;49.120;9.730;2023-06-22T04:14:53;71.65;;;67.70;;
9254;SDS011;4663;49.120;9.730;2023-06-22T04:17:19;60.83;;;57.45;;
9254;SDS011;4663;49.120;9.730;2023-06-22T04:19:44;50.80;;;47.50;;
9254;SDS011;4663;49.120;9.730;2023-06-22T04:22:09;39.90;;;37.60;;
9254;SDS011;4663;49.120;9.730;2023-06-22T04:24:35;36.40;;;34.10;;
9254;SDS011;4663;49.120;9.730;2023-06-22T04:27:00;39.00;;;36.58;;
9254;SDS011;4663;49.120;9.730;2023-06-22T04:29:28;42.33;;;39.70;;
9254;SDS011;4663;49.120;9.730;2023-06-22T04:31:56;42.33;;;39.40;;
9254;SDS011;4663;49.120;9.730;2023-06-22T04:34:28;38.80;;;36.60;;
9254;SDS011;4663;49.120;9.730;2023-06-22T04:36:54;37.55;;;35.40;;
9254;SDS011;4663;49.120;9.730;2023-06-22T04:39:20;35.80;;;33.42;;
9254;SDS011;4663;49.120;9.730;2023-06-22T04:41:45;37.05;;;34.65;;
9254;SDS011;4663;49.120;9.730;2023-06-22T04:44:17;35.13;;;32.60;;
9254;SDS011;4663;49.120;9.730;2023-06-22T04:46:56;35.83;;;33.55;;
9254;SDS011;4663;49.120;9.730;2023-06-22T04:49:27;36.40;;;34.17;;
9254;SDS011;4663;49.120;9.730;2023-06-22T04:52:02;39.72;;;37.08;;
9254;SDS011;4663;49.120;9.730;2023-06-22T04:54:29;40.13;;;37.60;;
9254;SDS011;4663;49.120;9.730;2023-06-22T04:56:58;38.55;;;36.20;;
9254;SDS011;4663;49.120;9.730;2023-06-22T04:59:27;35.53;;;33.30;;
9254;SDS011;4663;49.120;9.730;2023-06-22T05:01:58;40.40;;;38.10;;
9254;SDS011;4663;49.120;9.730;2023-06-22T05:04:25;43.67;;;40.90;;
9254;SDS011;4663;49.120;9.730;2023-06-22T05:06:52;35.80;;;33.78;;
9254;SDS011;4663;49.120;9.730;2023-06-22T05:09:18;36.08;;;33.60;;
9254;SDS011;4663;49.120;9.730;2023-06-22T05:11:44;37.95;;;35.55;;
9254;SDS011;4663;49.120;9.730;2023-06-22T05:14:09;35.65;;;33.28;;
9254;SDS011;4663;49.120;9.730;2023-06-22T05:16:36;37.53;;;34.97;;
9254;SDS011;4663;49.120;9.730;2023-06-22T05:19:01;31.08;;;29.08;;
9254;SDS011;4663;49.120;9.730;2023-06-22T05:21:29;31.63;;;29.75;;
9254;SDS011;4663;49.120;9.730;2023-06-22T05:23:55;31.65;;;29.73;;
9254;SDS011;4663;49.120;9.730;2023-06-22T05:26:25;28.98;;;27.17;;
9254;SDS011;4663;49.120;9.730;2023-06-22T05:28:51;28.58;;;26.90;;
9254;SDS011;4663;49.120;9.730;2023-06-22T05:31:17;32.58;;;30.73;;
9254;SDS011;4663;49.120;9.730;2023-06-22T05:33:44;33.72;;;31.52;;
9254;SDS011;4663;49.120;9.730;2023-06-22T05:36:10;31.85;;;29.73;;
9254;SDS011;4663;49.120;9.730;2023-06-22T05:38:37;29.25;;;27.42;;
9254;SDS011;4663;49.120;9.730;2023-06-22T05:41:03;31.42;;;29.48;;
9254;SDS011;4663;49.120;9.730;2023-06-22T05:43:28;30.90;;;29.00;;
9254;SDS011;4663;49.120;9.730;2023-06-22T05:45:54;31.17;;;29.15;;
9254;SDS011;4663;49.120;9.730;2023-06-22T05:48:19;31.35;;;29.40;;
9254;SDS011;4663;49.120;9.730;2023-06-22T05:50:45;30.98;;;29.17;;
9254;SDS011;4663;49.120;9.730;2023-06-22T05:53:10;31.55;;;29.75;;
9254;SDS011;4663;49.120;9.730;2023-06-22T05:55:36;33.53;;;31.67;;
9254;SDS011;4663;49.120;9.730;2023-06-22T05:58:01;33.08;;;30.98;;
9254;SDS011;4663;49.120;9.730;2023-06-22T06:00:28;35.25;;;33.17;;
9254;SDS011;4663;49.120;9.730;2023-06-22T06:02:53;31.98;;;30.08;;
9254;SDS011;4663;49.120;9.730;2023-06-22T06:05:19;32.47;;;30.55;;
9254;SDS011;4663;49.120;9.730;2023-06-22T06:07:44;31.95;;;30.23;;
9254;SDS011;4663;49.120;9.730;2023-06-22T06:10:10;31.70;;;29.83;;
9254;SDS011;4663;49.120;9.730;2023-06-22T06:12:36;27.73;;;25.92;;
9254;SDS011;4663;49.120;9.730;2023-06-22T06:15:02;27.27;;;25.67;;
9254;SDS011;4663;49.120;9.730;2023-06-22T06:17:27;28.23;;;26.60;;
9254;SDS011;4663;49.120;9.730;2023-06-22T06:19:53;28.45;;;26.83;;
9254;SDS011;4663;49.120;9.730;2023-06-22T06:22:18;30.70;;;28.92;;
9254;SDS011;4663;49.120;9.730;2023-06-22T06:24:45;32.00;;;29.88;;
9254;SDS011;4663;49.120;9.730;2023-06-22T06:27:11;33.20;;;31.27;;
9254;SDS011;4663;49.120;9.730;2023-06-22T06:29:36;31.13;;;29.13;;
9254;SDS011;4663;49.120;9.730;2023-06-22T06:32:01;29.58;;;27.65;;
9254;SDS011;4663;49.120;9.730;2023-06-22T06:34:27;29.23;;;27.45;;
9254;SDS011;4663;49.120;9.730;2023-06-22T06:36:52;29.58;;;27.88;;
9254;SDS011;4663;49.120;9.730;2023-06-22T06:39:17;32.90;;;31.10;;
9254;SDS011;4663;49.120;9.730;2023-06-22T06:41:43;31.30;;;29.67;;
9254;SDS011;4663;49.120;9.730;2023-06-22T06:44:08;30.55;;;28.75;;
9254;SDS011;4663;49.120;9.730;2023-06-22T06:46:33;30.63;;;28.98;;
9254;SDS011;4663;49.120;9.730;2023-06-22T06:48:59;35.58;;;33.47;;
9254;SDS011;4663;49.120;9.730;2023-06-22T06:51:24;32.50;;;30.80;;
9254;SDS011;4663;49.120;9.730;2023-06-22T06:53:50;28.55;;;27.05;;
9254;SDS011;4663;49.120;9.730;2023-06-22T06:56:15;26.30;;;24.73;;
9254;SDS011;4663;49.120;9.730;2023-06-22T06:58:41;26.58;;;25.08;;
9254;SDS011;4663;49.120;9.730;2023-06-22T07:01:07;30.92;;;29.10;;
9254;SDS011;4663;49.120;9.730;2023-06-22T07:03:33;31.90;;;30.10;;
9254;SDS011;4663;49.120;9.730;2023-06-22T07:05:59;35.90;;;33.70;;
9254;SDS011;4663;49.120;9.730;2023-06-22T07:08:25;39.67;;;37.53;;
9254;SDS011;4663;49.120;9.730;2023-06-22T07:10:51;44.60;;;42.20;;
9254;SDS011;4663;49.120;9.730;2023-06-22T07:13:17;40.47;;;38.17;;
9254;SDS011;4663;49.120;9.730;2023-06-22T07:15:43;35.55;;;33.55;;
9254;SDS011;4663;49.120;9.730;2023-06-22T07:18:08;29.85;;;28.25;;
9254;SDS011;4663;49.120;9.730;2023-06-22T07:20:34;30.10;;;28.45;;
9254;SDS011;4663;49.120;9.730;2023-06-22T07:22:59;29.67;;;27.98;;
9254;SDS011;4663;49.120;9.730;2023-06-22T07:25:25;30.02;;;28.42;;
9254;SDS011;4663;49.120;9.730;2023-06-22T07:27:58;29.17;;;27.67;;
9254;SDS011;4663;49.120;9.730;2023-06-22T07:30:28;31.05;;;29.38;;
9254;SDS011;4663;49.120;9.730;2023-06-22T07:32:54;29.80;;;28.20;;
9254;SDS011;4663;49.120;9.730;2023-06-22T07:35:19;28.90;;;27.05;;
9254;SDS011;4663;49.120;9.730;2023-06-22T07:37:45;32.20;;;30.05;;
9254;SDS011;4663;49.120;9.730;2023-06-22T07:40:10;32.78;;;31.00;;
9254;SDS011;4663;49.120;9.730;2023-06-22T07:42:36;35.78;;;33.67;;
9254;SDS011;4663;49.120;9.730;2023-06-22T07:45:02;37.83;;;35.83;;
9254;SDS011;4663;49.120;9.730;2023-06-22T07:47:28;48.67;;;46.17;;
9254;SDS011;4663;49.120;9.730;2023-06-22T07:49:54;68.78;;;65.43;;
9254;SDS011;4663;49.120;9.730;2023-06-22T07:52:22;64.45;;;61.25;;
9254;SDS011;4663;49.120;9.730;2023-06-22T07:54:48;64.50;;;61.40;;
9254;SDS011;4663;49.120;9.730;2023-06-22T07:57:13;59.83;;;56.90;;
9254;SDS011;4663;49.120;9.730;2023-06-22T07:59:39;74.07;;;70.43;;
9254;SDS011;4663;49.120;9.730;2023-06-22T08:02:04;87.97;;;83.53;;
9254;SDS011;4663;49.120;9.730;2023-06-22T08:04:30;103.25;;;98.00;;
9254;SDS011;4663;49.120;9.730;2023-06-22T08:06:56;115.72;;;110.22;;
9254;SDS011;4663;49.120;9.730;2023-06-22T08:09:22;97.88;;;93.25;;
9254;SDS011;4663;49.120;9.730;2023-06-22T08:11:47;97.55;;;92.78;;
9254;SDS011;4663;49.120;9.730;2023-06-22T08:14:14;69.72;;;66.22;;
9254;SDS011;4663;49.120;9.730;2023-06-22T08:16:40;75.47;;;71.90;;
9254;SDS011;4663;49.120;9.730;2023-06-22T08:19:06;67.95;;;64.45;;
9254;SDS011;4663;49.120;9.730;2023-06-22T08:21:32;72.20;;;68.70;;
9254;SDS011;4663;49.120;9.730;2023-06-22T08:23:57;54.25;;;51.38;;
9254;SDS011;4663;49.120;9.730;2023-06-22T08:26:22;43.83;;;41.50;;
9254;SDS011;4663;49.120;9.730;2023-06-22T08:28:48;62.20;;;59.05;;
9254;SDS011;4663;49.120;9.730;2023-06-22T08:31:13;84.53;;;80.50;;
9254;SDS011;4663;49.120;9.730;2023-06-22T08:33:39;95.88;;;91.22;;
9254;SDS011;4663;49.120;9.730;2023-06-22T08:36:05;94.22;;;89.57;;
9254;SDS011;4663;49.120;9.730;2023-06-22T08:38:31;83.30;;;79.15;;
9254;SDS011;4663;49.120;9.730;2023-06-22T08:40:56;87.63;;;83.25;;
9254;SDS011;4663;49.120;9.730;2023-06-22T08:43:22;91.57;;;87.10;;
9254;SDS011;4663;49.120;9.730;2023-06-22T08:45:47;116.68;;;110.82;;
9254;SDS011;4663;49.120;9.730;2023-06-22T08:48:13;130.63;;;124.40;;
9254;SDS011;4663;49.120;9.730;2023-06-22T08:50:39;92.50;;;88.15;;
9254;SDS011;4663;49.120;9.730;2023-06-22T08:53:05;77.05;;;73.18;;
9254;SDS011;4663;49.120;9.730;2023-06-22T08:55:31;76.63;;;72.95;;
9254;SDS011;4663;49.120;9.730;2023-06-22T08:57:56;88.50;;;83.93;;
9254;SDS011;4663;49.120;9.730;2023-06-22T09:00:22;86.75;;;82.28;;
9254;SDS011;4663;49.120;9.730;2023-06-22T09:02:47;94.20;;;89.47;;
9254;SDS011;4663;49.120;9.730;2023-06-22T09:05:13;108.95;;;103.63;;
9254;SDS011;4663;49.120;9.730;2023-06-22T09:07:39;85.03;;;80.78;;
9254;SDS011;4663;49.120;9.730;2023-06-22T09:10:05;73.32;;;69.22;;
9254;SDS011;4663;49.120;9.730;2023-06-22T09:12:31;72.75;;;68.97;;
9254;SDS011;4663;49.120;9.730;2023-06-22T09:14:58;65.75;;;62.08;;
9254;SDS011;4663;49.120;9.730;2023-06-22T09:17:25;53.00;;;50.28;;
9254;SDS011;4663;49.120;9.730;2023-06-22T09:19:51;41.85;;;39.67;;
9254;SDS011;4663;49.120;9.730;2023-06-22T09:22:16;37.40;;;35.38;;
9254;SDS011;4663;49.120;9.730;2023-06-22T09:24:42;37.28;;;34.97;;
9254;SDS011;4663;49.120;9.730;2023-06-22T09:27:07;31.02;;;29.20;;
9254;SDS011;4663;49.120;9.730;2023-06-22T09:29:32;33.63;;;31.70;;
9254;SDS011;4663;49.120;9.730;2023-06-22T09:31:58;31.88;;;30.13;;
9254;SDS011;4663;49.120;9.730;2023-06-22T09:34:25;31.42;;;29.70;;
9254;SDS011;4663;49.120;9.730;2023-06-22T09:36:50;30.88;;;28.98;;
9254;SDS011;4663;49.120;9.730;2023-06-22T09:39:17;32.80;;;30.95;;
9254;SDS011;4663;49.120;9.730;2023-06-22T09:41:43;29.65;;;27.95;;
9254;SDS011;4663;49.120;9.730;2023-06-22T09:44:09;30.30;;;28.58;;
9254;SDS011;4663;49.120;9.730;2023-06-22T09:46:34;30.23;;;28.63;;
9254;SDS011;4663;49.120;9.730;2023-06-22T09:48:59;34.60;;;32.47;;
9254;SDS011;4663;49.120;9.730;2023-06-22T09:51:25;31.35;;;29.35;;
9254;SDS011;4663;49.120;9.730;2023-06-22T09:53:50;29.98;;;28.23;;
9254;SDS011;4663;49.120;9.730;2023-06-22T09:56:17;34.15;;;32.33;;
9254;SDS011;4663;49.120;9.730;2023-06-22T09:58:42;31.98;;;30.10;;
9254;SDS011;4663;49.120;9.730;2023-06-22T10:01:09;33.13;;;31.40;;
9254;SDS011;4663;49.120;9.730;2023-06-22T10:03:35;32.95;;;30.95;;
9254;SDS011;4663;49.120;9.730;2023-06-22T10:06:01;32.30;;;30.38;;
9254;SDS011;4663;49.120;9.730;2023-06-22T10:08:27;29.98;;;28.20;;
9254;SDS011;4663;49.120;9.730;2023-06-22T10:10:52;31.02;;;29.33;;
9254;SDS011;4663;49.120;9.730;2023-06-22T10:13:18;42.22;;;39.88;;
9254;SDS011;4663;49.120;9.730;2023-06-22T10:15:44;35.13;;;33.13;;
9254;SDS011;4663;49.120;9.730;2023-06-22T10:18:14;32.53;;;30.83;;
9254;SDS011;4663;49.120;9.730;2023-06-22T10:20:41;34.22;;;32.47;;
9254;SDS011;4663;49.120;9.730;2023-06-22T10:23:06;35.65;;;33.42;;
9254;SDS011;4663;49.120;9.730;2023-06-22T10:25:32;35.08;;;33.13;;
9254;SDS011;4663;49.120;9.730;2023-06-22T10:27:57;31.17;;;29.40;;
9254;SDS011;4663;49.120;9.730;2023-06-22T10:30:22;31.15;;;29.33;;
9254;SDS011;4663;49.120;9.730;2023-06-22T10:32:48;33.25;;;31.42;;
9254;SDS011;4663;49.120;9.730;2023-06-22T10:35:14;33.50;;;31.77;;
9254;SDS011;4663;49.120;9.730;2023-06-22T10:37:41;33.63;;;31.83;;
9254;SDS011;4663;49.120;9.730;2023-06-22T10:40:08;33.92;;;32.03;;
9254;SDS011;4663;49.120;9.730;2023-06-22T10:42:34;30.23;;;28.55;;
9254;SDS011;4663;49.120;9.730;2023-06-22T10:45:00;33.60;;;31.67;;
9254;SDS011;4663;49.120;9.730;2023-06-22T10:47:25;38.05;;;35.72;;
9254;SDS011;4663;49.120;9.730;2023-06-22T10:49:50;36.15;;;34.13;;
9254;SDS011;4663;49.120;9.730;2023-06-22T10:52:16;38.95;;;36.55;;
9254;SDS011;4663;49.120;9.730;2023-06-22T10:54:41;40.10;;;37.58;;
9254;SDS011;4663;49.120;9.730;2023-06-22T10:57:07;41.75;;;39.55;;
9254;SDS011;4663;49.120;9.730;2023-06-22T10:59:32;45.38;;;42.78;;
9254;SDS011;4663;49.120;9.730;2023-06-22T11:01:58;45.70;;;43.25;;
9254;SDS011;4663;49.120;9.730;2023-06-22T11:04:24;50.25;;;47.55;;
9254;SDS011;4663;49.120;9.730;2023-06-22T11:06:50;45.50;;;42.63;;
9254;SDS011;4663;49.120;9.730;2023-06-22T11:09:16;39.83;;;37.35;;
9254;SDS011;4663;49.120;9.730;2023-06-22T11:11:45;44.25;;;41.47;;
9254;SDS011;4663;49.120;9.730;2023-06-22T11:14:11;47.33;;;44.72;;
9254;SDS011;4663;49.120;9.730;2023-06-22T11:16:37;49.00;;;46.30;;
9254;SDS011;4663;49.120;9.730;2023-06-22T11:19:04;39.30;;;37.10;;
9254;SDS011;4663;49.120;9.730;2023-06-22T11:21:30;42.78;;;40.25;;
9254;SDS011;4663;49.120;9.730;2023-06-22T11:23:56;43.58;;;41.03;;
9254;SDS011;4663;49.120;9.730;2023-06-22T11:26:22;42.15;;;39.65;;
9254;SDS011;4663;49.120;9.730;2023-06-22T11:28:48;50.67;;;47.88;;
9254;SDS011;4663;49.120;9.730;2023-06-22T11:31:13;52.63;;;49.63;;
9254;SDS011;4663;49.120;9.730;2023-06-22T11:33:39;58.58;;;55.42;;
9254;SDS011;4663;49.120;9.730;2023-06-22T11:36:05;53.40;;;50.67;;
9254;SDS011;4663;49.120;9.730;2023-06-22T11:38:30;49.10;;;46.40;;
9254;SDS011;4663;49.120;9.730;2023-06-22T11:40:57;49.75;;;46.63;;
9254;SDS011;4663;49.120;9.730;2023-06-22T11:43:23;52.60;;;49.35;;
9254;SDS011;4663;49.120;9.730;2023-06-22T11:45:49;47.45;;;44.67;;
9254;SDS011;4663;49.120;9.730;2023-06-22T11:48:14;48.50;;;45.75;;
9254;SDS011;4663;49.120;9.730;2023-06-22T11:50:39;46.90;;;44.20;;
9254;SDS011;4663;49.120;9.730;2023-06-22T11:53:05;50.67;;;47.95;;
9254;SDS011;4663;49.120;9.730;2023-06-22T11:55:30;50.80;;;47.92;;
9254;SDS011;4663;49.120;9.730;2023-06-22T11:57:56;46.47;;;43.90;;
9254;SDS011;4663;49.120;9.730;2023-06-22T12:00:28;45.40;;;42.90;;
9254;SDS011;4663;49.120;9.730;2023-06-22T12:02:54;43.88;;;40.95;;
9254;SDS011;4663;49.120;9.730;2023-06-22T12:05:21;42.97;;;39.72;;
9254;SDS011;4663;49.120;9.730;2023-06-22T12:07:47;34.90;;;32.55;;
9254;SDS011;4663;49.120;9.730;2023-06-22T12:10:13;33.17;;;31.08;;
9254;SDS011;4663;49.120;9.730;2023-06-22T12:12:39;34.58;;;32.50;;
9254;SDS011;4663;49.120;9.730;2023-06-22T12:15:04;35.70;;;33.67;;
9254;SDS011;4663;49.120;9.730;2023-06-22T12:17:30;34.25;;;32.20;;
9254;SDS011;4663;49.120;9.730;2023-06-22T12:19:56;34.97;;;32.75;;
9254;SDS011;4663;49.120;9.730;2023-06-22T12:22:21;37.47;;;35.10;;
9254;SDS011;4663;49.120;9.730;2023-06-22T12:24:47;37.63;;;34.50;;
9254;SDS011;4663;49.120;9.730;2023-06-22T12:27:12;31.48;;;29.27;;
9254;SDS011;4663;49.120;9.730;2023-06-22T12:29:41;34.13;;;31.92;;
9254;SDS011;4663;49.120;9.730;2023-06-22T12:32:07;37.17;;;34.95;;
9254;SDS011;4663;49.120;9.730;2023-06-22T12:34:32;34.67;;;32.78;;
9254;SDS011;4663;49.120;9.730;2023-06-22T12:36:58;38.10;;;35.88;;
9254;SDS011;4663;49.120;9.730;2023-06-22T12:39:23;36.22;;;33.80;;
9254;SDS011;4663;49.120;9.730;2023-06-22T12:41:49;39.70;;;37.00;;
9254;SDS011;4663;49.120;9.730;2023-06-22T12:44:14;42.90;;;40.53;;
9254;SDS011;4663;49.120;9.730;2023-06-22T12:46:39;45.20;;;42.70;;
9254;SDS011;4663;49.120;9.730;2023-06-22T12:49:05;43.03;;;40.15;;
9254;SDS011;4663;49.120;9.730;2023-06-22T12:51:30;43.28;;;40.83;;
9254;SDS011;4663;49.120;9.730;2023-06-22T12:53:56;44.63;;;42.22;;
9254;SDS011;4663;49.120;9.730;2023-06-22T12:56:22;44.08;;;41.22;;
9254;SDS011;4663;49.120;9.730;2023-06-22T12:58:47;46.15;;;43.63;;
9254;SDS011;4663;49.120;9.730;2023-06-22T13:01:13;43.90;;;40.78;;
9254;SDS011;4663;49.120;9.730;2023-06-22T13:03:38;43.83;;;41.50;;
9254;SDS011;4663;49.120;9.730;2023-06-22T13:06:04;51.35;;;48.65;;
9254;SDS011;4663;49.120;9.730;2023-06-22T13:08:29;59.40;;;56.20;;
9254;SDS011;4663;49.120;9.730;2023-06-22T13:10:55;73.03;;;68.72;;
9254;SDS011;4663;49.120;9.730;2023-06-22T13:13:23;71.90;;;68.00;;
9254;SDS011;4663;49.120;9.730;2023-06-22T13:15:50;69.97;;;66.40;;
9254;SDS011;4663;49.120;9.730;2023-06-22T13:18:17;73.32;;;69.47;;
9254;SDS011;4663;49.120;9.730;2023-06-22T13:20:43;62.80;;;59.20;;
9254;SDS011;4663;49.120;9.730;2023-06-22T13:23:10;62.13;;;58.92;;
9254;SDS011;4663;49.120;9.730;2023-06-22T13:25:36;59.58;;;56.10;;
9254;SDS011;4663;49.120;9.730;2023-06-22T13:28:01;55.33;;;52.22;;
9254;SDS011;4663;49.120;9.730;2023-06-22T13:30:27;55.03;;;51.92;;
9254;SDS011;4663;49.120;9.730;2023-06-22T13:32:52;51.75;;;48.80;;
9254;SDS011;4663;49.120;9.730;2023-06-22T13:35:17;53.35;;;50.35;;
9254;SDS011;4663;49.120;9.730;2023-06-22T13:37:43;48.72;;;46.08;;
9254;SDS011;4663;49.120;9.730;2023-06-22T13:40:09;49.05;;;46.10;;
9254;SDS011;4663;49.120;9.730;2023-06-22T13:42:34;50.60;;;47.60;;
9254;SDS011;4663;49.120;9.730;2023-06-22T13:45:00;48.58;;;46.00;;
9254;SDS011;4663;49.120;9.730;2023-06-22T13:47:26;66.90;;;63.08;;
9254;SDS011;4663;49.120;9.730;2023-06-22T13:49:51;68.30;;;64.78;;
9254;SDS011;4663;49.120;9.730;2023-06-22T13:52:16;66.40;;;62.95;;
9254;SDS011;4663;49.120;9.730;2023-06-22T13:54:42;62.92;;;59.28;;
9254;SDS011;4663;49.120;9.730;2023-06-22T13:57:07;63.08;;;59.47;;
9254;SDS011;4663;49.120;9.730;2023-06-22T13:59:33;65.78;;;62.10;;
9254;SDS011;4663;49.120;9.730;2023-06-22T14:01:58;57.55;;;54.50;;
9254;SDS011;4663;49.120;9.730;2023-06-22T14:04:23;60.88;;;57.53;;
9254;SDS011;4663;49.120;9.730;2023-06-22T14:06:49;63.42;;;60.05;;
9254;SDS011;4663;49.120;9.730;2023-06-22T14:09:14;65.82;;;62.03;;
9254;SDS011;4663;49.120;9.730;2023-06-22T14:11:40;63.13;;;59.85;;
9254;SDS011;4663;49.120;9.730;2023-06-22T14:14:05;63.95;;;60.60;;
9254;SDS011;4663;49.120;9.730;2023-06-22T14:16:31;71.72;;;67.85;;
9254;SDS011;4663;49.120;9.730;2023-06-22T14:18:56;67.63;;;64.13;;
9254;SDS011;4663;49.120;9.730;2023-06-22T14:21:21;61.90;;;58.53;;
9254;SDS011;4663;49.120;9.730;2023-06-22T14:23:47;66.70;;;63.10;;
9254;SDS011;4663;49.120;9.730;2023-06-22T14:26:15;61.50;;;58.17;;
9254;SDS011;4663;49.120;9.730;2023-06-22T14:28:42;65.93;;;62.25;;
9254;SDS011;4663;49.120;9.730;2023-06-22T14:31:16;63.92;;;60.22;;
9254;SDS011;4663;49.120;9.730;2023-06-22T14:33:49;62.83;;;59.47;;
9254;SDS011;4663;49.120;9.730;2023-06-22T14:36:15;60.35;;;56.88;;
9254;SDS011;4663;49.120;9.730;2023-06-22T14:38:41;60.75;;;57.22;;
9254;SDS011;4663;49.120;9.730;2023-06-22T14:41:06;56.78;;;53.58;;
9254;SDS011;4663;49.120;9.730;2023-06-22T14:43:31;60.90;;;57.60;;
9254;SDS011;4663;49.120;9.730;2023-06-22T14:45:57;58.65;;;55.28;;
9254;SDS011;4663;49.120;9.730;2023-06-22T14:48:22;58.92;;;55.75;;
9254;SDS011;4663;49.120;9.730;2023-06-22T14:50:48;55.22;;;52.22;;